createdAt,value
2018-07-25T00:00:24.740Z,10.70
2018-07-25T00:02:54.631Z,9.37
2018-07-25T00:05:23.996Z,10.83
2018-07-25T00:07:53.441Z,9.77
2018-07-25T00:10:26.935Z,8.17
2018-07-25T00:12:56.300Z,9.10
2018-07-25T00:15:25.667Z,8.40
2018-07-25T00:17:55.059Z,9.83
2018-07-25T00:20:24.481Z,9.37
2018-07-25T00:22:53.865Z,8.20
2018-07-25T00:25:23.272Z,8.27
2018-07-25T00:27:52.729Z,8.47
2018-07-25T00:30:22.693Z,9.40
2018-07-25T00:32:52.421Z,8.30
2018-07-25T00:35:21.802Z,8.33
2018-07-25T00:37:51.158Z,7.90
2018-07-25T00:40:20.536Z,7.70
2018-07-25T00:42:51.109Z,7.73
2018-07-25T00:45:20.588Z,7.30
2018-07-25T00:47:49.956Z,7.80
2018-07-25T00:50:19.758Z,7.27
2018-07-25T00:52:49.177Z,7.50
2018-07-25T00:55:18.617Z,7.90
2018-07-25T00:57:48.143Z,7.33
2018-07-25T01:00:18.828Z,7.77
2018-07-25T01:02:49.112Z,8.20
2018-07-25T01:05:19.002Z,7.90
2018-07-25T01:07:48.447Z,7.70
2018-07-25T01:10:17.838Z,7.77
2018-07-25T01:12:47.280Z,8.40
2018-07-25T01:15:16.656Z,7.60
2018-07-25T01:17:46.008Z,8.53
2018-07-25T01:20:15.363Z,8.50
2018-07-25T01:22:45.243Z,8.90
2018-07-25T01:25:14.597Z,7.30
2018-07-25T01:27:43.988Z,7.57
2018-07-25T01:30:14.696Z,7.70
2018-07-25T01:32:44.076Z,9.10
2018-07-25T01:35:13.517Z,7.40
2018-07-25T01:37:42.891Z,7.23
2018-07-25T01:40:13.189Z,8.70
2018-07-25T01:42:42.621Z,7.80
2018-07-25T01:45:12.044Z,7.47
2018-07-25T01:47:41.392Z,7.70
2018-07-25T01:50:10.796Z,7.10
2018-07-25T01:52:40.139Z,7.43
2018-07-25T01:55:10.143Z,7.93
2018-07-25T01:57:39.595Z,7.70
2018-07-25T02:00:09.787Z,7.43
2018-07-25T02:02:39.185Z,7.90
2018-07-25T02:05:09.352Z,7.70
2018-07-25T02:07:38.733Z,7.33
2018-07-25T02:10:08.333Z,8.27
2018-07-25T02:12:37.719Z,7.83
2018-07-25T02:15:08.340Z,9.10
2018-07-25T02:17:37.697Z,8.70
2018-07-25T02:20:09.024Z,8.30
2018-07-25T02:22:38.449Z,8.43
2018-07-25T02:25:09.903Z,7.87
2018-07-25T02:27:39.296Z,8.67
2018-07-25T02:30:08.776Z,8.10
2018-07-25T02:32:38.163Z,8.23
2018-07-25T02:35:07.578Z,7.70
2018-07-25T02:37:37.201Z,7.63
2018-07-25T02:40:09.247Z,9.80
2018-07-25T02:42:38.630Z,8.53
2018-07-25T02:45:09.170Z,9.27
2018-07-25T02:47:38.529Z,8.30
2018-07-25T02:50:08.436Z,8.30
2018-07-25T02:52:37.830Z,9.10
2018-07-25T02:55:08.859Z,8.10
2018-07-25T02:57:38.280Z,9.23
2018-07-25T03:00:08.452Z,10.20
2018-07-25T03:02:37.849Z,8.37
2018-07-25T03:05:07.985Z,8.30
2018-07-25T03:07:37.592Z,9.43
2018-07-25T03:10:09.740Z,9.00
2018-07-25T03:12:39.108Z,7.60
2018-07-25T03:15:08.604Z,9.60
2018-07-25T03:17:38.039Z,8.80
2018-07-25T03:20:09.012Z,8.50
2018-07-25T03:22:38.375Z,8.37
2018-07-25T03:25:10.039Z,9.17
2018-07-25T03:27:39.683Z,9.07
2018-07-25T03:30:09.413Z,9.40
2018-07-25T03:32:38.777Z,9.43
2018-07-25T03:35:08.945Z,8.70
2018-07-25T03:37:38.320Z,8.57
2018-07-25T03:40:08.176Z,8.50
2018-07-25T03:42:37.531Z,9.37
2018-07-25T03:45:09.045Z,7.40
2018-07-25T03:47:38.445Z,9.50
2018-07-25T03:50:08.639Z,8.13
2018-07-25T03:52:38.210Z,7.97
2018-07-25T03:55:08.355Z,8.60
2018-07-25T03:57:37.805Z,8.40
2018-07-25T04:00:09.524Z,9.47
2018-07-25T04:02:39.012Z,8.33
2018-07-25T04:05:09.661Z,9.67
2018-07-25T04:07:39.033Z,8.60
2018-07-25T04:10:08.451Z,8.93
2018-07-25T04:12:37.822Z,8.47
2018-07-25T04:15:09.256Z,8.30
2018-07-25T04:17:45.989Z,8.80
2018-07-25T04:20:16.402Z,8.73
2018-07-25T04:22:46.149Z,8.83
2018-07-25T04:25:15.723Z,8.00
2018-07-25T04:27:46.336Z,8.20
2018-07-25T04:30:16.723Z,8.27
2018-07-25T04:32:46.300Z,9.70
2018-07-25T04:35:17.424Z,8.70
2018-07-25T04:37:46.793Z,8.33
2018-07-25T04:40:16.168Z,9.07
2018-07-25T04:42:45.626Z,8.23
2018-07-25T04:45:15.140Z,8.60
2018-07-25T04:47:44.670Z,8.07
2018-07-25T04:50:14.824Z,8.97
2018-07-25T04:52:44.359Z,8.57
2018-07-25T04:55:13.726Z,8.63
2018-07-25T04:57:43.794Z,9.27
2018-07-25T05:00:13.215Z,8.63
2018-07-25T05:02:42.581Z,8.80
2018-07-25T05:05:11.940Z,8.30
2018-07-25T05:07:41.301Z,8.60
2018-07-25T05:10:11.108Z,7.57
2018-07-25T05:12:40.554Z,7.77
2018-07-25T05:15:10.146Z,7.83
2018-07-25T05:17:40.088Z,8.03
2018-07-25T05:20:09.479Z,8.57
2018-07-25T05:22:38.881Z,8.80
2018-07-25T05:25:08.738Z,7.30
2018-07-25T05:27:38.132Z,8.53
2018-07-25T05:30:08.037Z,7.90
2018-07-25T05:32:37.553Z,7.70
2018-07-25T05:35:09.541Z,7.10
2018-07-25T05:37:38.895Z,6.83
2018-07-25T05:40:08.305Z,6.80
2018-07-25T05:42:38.430Z,7.30
2018-07-25T05:45:08.732Z,6.40
2018-07-25T05:47:38.292Z,6.77
2018-07-25T05:50:09.248Z,6.40
2018-07-25T05:52:38.638Z,6.67
2018-07-25T05:55:13.219Z,7.10
2018-07-25T05:57:42.587Z,6.17
2018-07-25T06:00:12.350Z,7.57
2018-07-25T06:02:41.746Z,6.87
2018-07-25T06:05:11.422Z,6.93
2018-07-25T06:07:40.801Z,7.03
2018-07-25T06:10:10.196Z,7.27
2018-07-25T06:12:39.585Z,6.40
2018-07-25T06:15:09.197Z,7.30
2018-07-25T06:17:38.639Z,6.67
2018-07-25T06:20:10.831Z,6.77
2018-07-25T06:22:40.239Z,6.63
2018-07-25T06:25:09.604Z,6.37
2018-07-25T06:27:38.963Z,5.97
2018-07-25T06:30:09.096Z,7.07
2018-07-25T06:32:38.663Z,5.27
2018-07-25T06:35:08.847Z,5.20
2018-07-25T06:37:38.231Z,5.60
2018-07-25T06:40:08.871Z,5.93
2018-07-25T06:42:38.241Z,6.70
2018-07-25T06:45:09.071Z,5.87
2018-07-25T06:47:38.462Z,6.17
2018-07-25T06:50:08.809Z,6.03
2018-07-25T06:52:38.328Z,5.33
2018-07-25T06:55:08.457Z,6.20
2018-07-25T06:57:37.815Z,5.67
2018-07-25T07:00:08.290Z,5.60
2018-07-25T07:02:37.675Z,5.77
2018-07-25T07:05:08.902Z,5.10
2018-07-25T07:07:38.257Z,6.50
2018-07-25T07:10:09.680Z,5.60
2018-07-25T07:12:39.101Z,5.97
2018-07-25T07:15:09.684Z,5.70
2018-07-25T07:17:39.241Z,5.90
2018-07-25T07:20:09.219Z,6.33
2018-07-25T07:22:39.668Z,5.30
2018-07-25T07:25:10.664Z,5.33
2018-07-25T07:27:40.009Z,5.53
2018-07-25T07:30:09.391Z,4.63
2018-07-25T07:32:38.746Z,5.50
2018-07-25T07:35:10.073Z,5.60
2018-07-25T07:37:39.721Z,5.43
2018-07-25T07:40:09.576Z,5.40
2018-07-25T07:42:39.477Z,4.70
2018-07-25T07:45:09.454Z,4.73
2018-07-25T07:47:38.834Z,4.70
2018-07-25T07:50:08.369Z,4.70
2018-07-25T07:52:37.803Z,4.87
2018-07-25T07:55:11.842Z,4.83
2018-07-25T07:57:41.584Z,5.73
2018-07-25T08:00:11.377Z,4.73
2018-07-25T08:02:40.765Z,4.00
2018-07-25T08:05:10.143Z,4.03
2018-07-25T08:07:39.585Z,3.90
2018-07-25T08:10:10.748Z,4.40
2018-07-25T08:12:40.301Z,3.50
2018-07-25T08:15:10.044Z,3.20
2018-07-25T08:17:39.549Z,3.50
2018-07-25T08:20:09.298Z,3.70
2018-07-25T08:22:38.784Z,3.67
2018-07-25T08:25:10.061Z,3.50
2018-07-25T08:27:40.100Z,4.03
2018-07-25T08:30:10.324Z,3.60
2018-07-25T08:32:39.721Z,3.30
2018-07-25T08:35:09.621Z,3.57
2018-07-25T08:37:38.999Z,4.53
2018-07-25T08:40:08.468Z,3.97
2018-07-25T08:42:37.846Z,3.63
2018-07-25T08:45:11.876Z,3.90
2018-07-25T08:47:41.281Z,3.30
2018-07-25T08:50:10.783Z,3.10
2018-07-25T08:52:40.266Z,3.83
2018-07-25T08:55:10.276Z,3.50
2018-07-25T08:57:39.787Z,5.20
2018-07-25T09:00:10.264Z,4.00
2018-07-25T09:02:40.180Z,4.17
2018-07-25T09:05:22.239Z,4.77
2018-07-25T09:07:56.981Z,4.53
2018-07-25T09:10:26.401Z,4.23
2018-07-25T09:12:55.802Z,4.40
2018-07-25T09:15:26.090Z,4.80
2018-07-25T09:17:56.040Z,4.27
2018-07-25T09:20:25.500Z,4.27
2018-07-25T09:22:54.891Z,4.00
2018-07-25T09:25:24.295Z,3.93
2018-07-25T09:27:53.952Z,4.17
2018-07-25T09:30:23.562Z,3.70
2018-07-25T09:32:53.579Z,3.70
2018-07-25T09:35:23.133Z,3.70
2018-07-25T09:37:52.713Z,5.13
2018-07-25T09:40:22.099Z,4.57
2018-07-25T09:42:52.024Z,4.90
2018-07-25T09:45:49.624Z,4.53
2018-07-25T09:48:19.291Z,4.50
2018-07-25T09:50:48.868Z,4.60
2018-07-25T09:53:18.564Z,4.57
2018-07-25T09:55:47.999Z,4.20
2018-07-25T09:58:19.786Z,4.40
2018-07-25T10:00:50.524Z,4.53
2018-07-25T10:03:20.564Z,4.40
2018-07-25T10:05:50.144Z,4.77
2018-07-25T10:08:19.706Z,4.67
2018-07-25T10:10:49.137Z,4.77
2018-07-25T10:13:18.701Z,3.67
2018-07-25T10:15:48.377Z,3.97
2018-07-25T10:18:18.690Z,3.50
2018-07-25T10:20:48.284Z,4.20
2018-07-25T10:23:17.844Z,3.57
2018-07-25T10:25:47.558Z,3.80
2018-07-25T10:28:17.120Z,3.47
2018-07-25T10:30:49.021Z,4.50
2018-07-25T10:33:18.621Z,3.80
2018-07-25T10:35:48.773Z,4.10
2018-07-25T10:38:18.401Z,3.80
2018-07-25T10:40:47.969Z,3.57
2018-07-25T10:43:20.036Z,4.10
2018-07-25T10:45:49.615Z,4.57
2018-07-25T10:48:19.189Z,3.87
2018-07-25T10:50:48.566Z,3.53
2018-07-25T10:53:18.892Z,4.40
2018-07-25T10:55:49.222Z,4.10
2018-07-25T10:58:18.868Z,3.83
2018-07-25T11:00:54.255Z,4.60
2018-07-25T11:03:23.813Z,3.83
2018-07-25T11:05:53.211Z,3.80
2018-07-25T11:08:22.878Z,4.20
2018-07-25T11:10:52.451Z,4.00
2018-07-25T11:13:22.474Z,3.80
2018-07-25T11:15:52.083Z,4.03
2018-07-25T11:18:36.701Z,4.00
2018-07-25T11:21:07.249Z,4.10
2018-07-25T11:23:39.206Z,4.60
2018-07-25T11:26:09.281Z,3.43
2018-07-25T11:28:39.193Z,4.13
2018-07-25T11:31:09.001Z,3.47
2018-07-25T11:33:39.292Z,3.70
2018-07-25T11:36:09.326Z,3.50
2018-07-25T11:38:38.695Z,4.43
2018-07-25T11:41:08.215Z,3.63
2018-07-25T11:43:37.741Z,3.93
2018-07-25T11:46:08.104Z,3.90
2018-07-25T11:48:37.488Z,3.47
2018-07-25T11:51:07.023Z,4.40
2018-07-25T11:53:37.625Z,4.20
2018-07-25T11:56:07.581Z,4.23
2018-07-25T11:58:37.808Z,4.00
2018-07-25T12:01:07.259Z,3.50
2018-07-25T12:03:36.893Z,3.63
2018-07-25T12:06:06.801Z,3.40
2018-07-25T12:08:36.150Z,3.50
2018-07-25T12:11:06.597Z,3.43
2018-07-25T12:13:36.382Z,4.13
2018-07-25T12:16:06.461Z,3.50
2018-07-25T12:18:36.506Z,3.50
2018-07-25T12:21:07.034Z,4.27
2018-07-25T12:23:36.652Z,3.63
2018-07-25T12:26:06.312Z,3.53
2018-07-25T12:28:36.175Z,4.07
2018-07-25T12:31:05.919Z,4.20
2018-07-25T12:33:35.471Z,3.53
2018-07-25T12:36:05.879Z,4.67
2018-07-25T12:38:35.445Z,3.87
2018-07-25T12:41:05.965Z,3.77
2018-07-25T12:43:35.769Z,3.30
2018-07-25T12:46:06.183Z,3.47
2018-07-25T12:48:36.852Z,3.90
2018-07-25T12:51:07.275Z,3.57
2018-07-25T12:53:37.888Z,3.23
2018-07-25T12:56:07.511Z,2.90
2018-07-25T12:58:37.791Z,3.43
2018-07-25T13:01:07.967Z,3.63
2018-07-25T13:03:37.559Z,2.97
2018-07-25T13:06:07.247Z,2.90
2018-07-25T13:08:37.419Z,2.87
2018-07-25T13:11:07.515Z,4.00
2018-07-25T13:13:37.841Z,3.70
2018-07-25T13:16:07.605Z,2.57
2018-07-25T13:18:37.284Z,3.10
2018-07-25T13:21:08.051Z,3.13
2018-07-25T13:23:39.576Z,3.33
2018-07-25T13:26:09.246Z,2.93
2018-07-25T13:28:40.190Z,3.37
2018-07-25T13:31:09.766Z,3.37
2018-07-25T13:33:39.995Z,2.73
2018-07-25T13:36:09.516Z,3.83
2018-07-25T13:38:39.077Z,3.13
2018-07-25T13:41:08.656Z,3.33
2018-07-25T13:43:38.213Z,3.77
2018-07-25T13:46:08.885Z,3.00
2018-07-25T13:48:41.176Z,3.20
2018-07-25T13:51:11.584Z,3.23
2018-07-25T13:53:41.144Z,2.70
2018-07-25T13:56:10.823Z,3.30
2018-07-25T13:58:40.227Z,3.97
2018-07-25T14:01:09.825Z,3.07
2018-07-25T14:03:40.479Z,3.50
2018-07-25T14:06:10.267Z,2.40
2018-07-25T14:08:40.643Z,2.93
2018-07-25T14:11:12.661Z,3.70
2018-07-25T14:13:42.255Z,3.33
2018-07-25T14:16:11.828Z,3.87
2018-07-25T14:18:41.813Z,3.50
2018-07-25T14:21:11.497Z,3.60
2018-07-25T14:23:41.254Z,4.10
2018-07-25T14:26:10.782Z,3.10
2018-07-25T14:28:40.483Z,2.70
2018-07-25T14:31:10.025Z,3.83
2018-07-25T14:33:40.044Z,3.10
2018-07-25T14:36:09.703Z,3.20
2018-07-25T14:38:39.253Z,2.87
2018-07-25T14:41:09.625Z,3.00
2018-07-25T14:43:39.728Z,3.90
2018-07-25T14:46:09.781Z,3.30
2018-07-25T14:48:39.405Z,3.20
2018-07-25T14:51:09.130Z,3.60
2018-07-25T14:53:38.965Z,2.70
2018-07-25T14:56:09.093Z,3.10
2018-07-25T14:58:39.622Z,2.43
2018-07-25T15:01:09.241Z,2.77
2018-07-25T15:03:40.445Z,2.33
2018-07-25T15:06:10.088Z,3.03
2018-07-25T15:08:40.592Z,2.87
2018-07-25T15:11:10.181Z,2.80
2018-07-25T15:13:39.964Z,2.97
2018-07-25T15:16:09.801Z,3.10
2018-07-25T15:18:40.141Z,3.00
2018-07-25T15:21:09.717Z,2.93
2018-07-25T15:24:00.721Z,2.73
2018-07-25T15:26:31.560Z,2.80
2018-07-25T15:29:02.107Z,2.77
2018-07-25T15:31:32.389Z,3.23
2018-07-25T15:34:02.008Z,3.47
2018-07-25T15:36:42.143Z,2.93
2018-07-25T15:39:22.116Z,3.20
2018-07-25T15:41:52.313Z,3.13
2018-07-25T15:44:22.962Z,2.60
2018-07-25T15:46:52.618Z,2.97
2018-07-25T15:49:22.502Z,3.67
2018-07-25T15:51:52.129Z,3.10
2018-07-25T15:54:21.765Z,3.70
2018-07-25T15:56:51.756Z,3.10
2018-07-25T15:59:21.528Z,3.83
2018-07-25T16:01:51.186Z,3.20
2018-07-25T16:04:20.716Z,3.50
2018-07-25T16:06:51.261Z,3.30
2018-07-25T16:09:21.199Z,3.77
2018-07-25T16:11:50.649Z,3.67
2018-07-25T16:14:20.024Z,3.27
2018-07-25T16:16:53.231Z,3.80
2018-07-25T16:19:23.046Z,3.70
2018-07-25T16:21:52.486Z,3.73
2018-07-25T16:24:22.644Z,2.87
2018-07-25T16:26:57.369Z,2.80
2018-07-25T16:29:28.291Z,3.43
2018-07-25T16:31:58.072Z,3.30
2018-07-25T16:34:27.662Z,3.50
2018-07-25T16:36:57.270Z,3.90
2018-07-25T16:39:34.773Z,3.40
2018-07-25T16:42:04.570Z,2.73
2018-07-25T16:44:34.466Z,3.50
2018-07-25T16:47:03.920Z,3.50
2018-07-25T16:49:33.861Z,4.07
2018-07-25T16:52:03.587Z,4.00
2018-07-25T16:54:36.596Z,3.93
2018-07-25T16:57:07.598Z,3.47
2018-07-25T16:59:37.176Z,4.57
2018-07-25T17:02:06.569Z,3.90
2018-07-25T17:04:36.144Z,3.70
2018-07-25T17:07:06.852Z,3.80
2018-07-25T17:09:36.837Z,5.73
2018-07-25T17:12:07.722Z,4.03
2018-07-25T17:14:37.475Z,3.53
2018-07-25T17:17:07.036Z,4.47
2018-07-25T17:19:36.968Z,4.70
2018-07-25T17:22:06.484Z,3.70
2018-07-25T17:24:36.122Z,3.93
2018-07-25T17:27:05.866Z,3.90
2018-07-25T17:29:35.409Z,2.77
2018-07-25T17:32:05.040Z,3.03
2018-07-25T17:34:34.768Z,2.00
2018-07-25T17:37:04.372Z,1.53
2018-07-25T17:39:33.943Z,1.20
2018-07-25T17:42:03.891Z,1.30
2018-07-25T17:44:33.524Z,1.97
2018-07-25T17:47:03.113Z,1.30
2018-07-25T17:49:32.708Z,1.20
2018-07-25T17:52:02.362Z,1.20
2018-07-25T17:54:31.940Z,1.20
2018-07-25T17:57:01.700Z,1.60
2018-07-25T17:59:31.240Z,1.10
2018-07-25T18:02:00.961Z,1.20
2018-07-25T18:04:30.838Z,1.20
2018-07-25T18:07:01.085Z,1.30
2018-07-25T18:09:30.748Z,1.53
2018-07-25T18:12:00.572Z,1.30
2018-07-25T18:14:30.170Z,1.00
2018-07-25T18:16:59.730Z,1.10
2018-07-25T18:19:29.388Z,1.50
2018-07-25T18:21:59.764Z,1.50
2018-07-25T18:24:29.129Z,1.67
2018-07-25T18:26:58.733Z,1.83
2018-07-25T18:29:28.333Z,1.80
2018-07-25T18:31:58.274Z,1.90
2018-07-25T18:34:27.957Z,1.90
2018-07-25T18:36:57.624Z,2.13
2018-07-25T18:39:27.313Z,2.80
2018-07-25T18:41:56.945Z,2.30
2018-07-25T18:44:26.640Z,1.60
2018-07-25T18:46:56.222Z,1.90
2018-07-25T18:49:28.326Z,1.70
2018-07-25T18:51:58.129Z,1.63
2018-07-25T18:54:28.088Z,1.93
2018-07-25T18:56:57.827Z,2.63
2018-07-25T18:59:27.332Z,1.73
2018-07-25T19:01:56.944Z,1.70
2018-07-25T19:04:26.561Z,1.80
2018-07-25T19:06:55.954Z,1.53
2018-07-25T19:09:25.436Z,1.70
2018-07-25T19:11:54.800Z,1.63
2018-07-25T19:14:31.941Z,2.20
2018-07-25T19:17:01.477Z,2.37
2018-07-25T19:19:30.852Z,2.17
2018-07-25T19:22:00.237Z,2.37
2018-07-25T19:24:30.112Z,2.10
2018-07-25T19:26:59.581Z,2.10
2018-07-25T19:29:30.260Z,1.63
2018-07-25T19:31:59.678Z,1.90
2018-07-25T19:34:29.077Z,1.70
2018-07-25T19:36:58.545Z,1.63
2018-07-25T19:39:32.746Z,1.63
2018-07-25T19:42:02.093Z,1.60
2018-07-25T19:44:31.511Z,1.43
2018-07-25T19:47:01.984Z,1.43
2018-07-25T19:49:31.606Z,1.63
2018-07-25T19:52:01.507Z,1.87
2018-07-25T19:54:31.294Z,1.60
2018-07-25T19:57:00.874Z,1.40
2018-07-25T19:59:30.240Z,2.00
2018-07-25T20:01:59.641Z,1.80
2018-07-25T20:04:29.042Z,1.80
2018-07-25T20:06:59.103Z,1.60
2018-07-25T20:09:28.663Z,2.13
2018-07-25T20:11:58.154Z,2.00
2018-07-25T20:14:32.845Z,1.47
2018-07-25T20:17:02.326Z,1.60
2018-07-25T20:19:32.910Z,1.53
2018-07-25T20:22:02.477Z,1.80
2018-07-25T20:24:31.841Z,1.40
2018-07-25T20:27:01.382Z,1.47
2018-07-25T20:29:30.771Z,1.53
2018-07-25T20:32:02.427Z,1.60
2018-07-25T20:34:32.227Z,1.70
2018-07-25T20:37:01.629Z,1.67
2018-07-25T20:39:31.021Z,1.30
2018-07-25T20:42:00.436Z,1.90
2018-07-25T20:44:30.041Z,1.80
2018-07-25T20:46:59.430Z,1.70
2018-07-25T20:49:29.372Z,1.40
2018-07-25T20:51:58.780Z,1.57
2018-07-25T20:54:28.140Z,2.23
2018-07-25T20:56:57.507Z,1.73
2018-07-25T20:59:27.234Z,1.47
2018-07-25T21:01:57.819Z,2.00
2018-07-25T21:04:27.154Z,1.63
2018-07-25T21:06:56.530Z,1.20
2018-07-25T21:09:27.021Z,1.53
2018-07-25T21:11:56.394Z,1.60
2018-07-25T21:14:25.833Z,1.50
2018-07-25T21:16:55.720Z,1.90
2018-07-25T21:19:25.765Z,1.70
2018-07-25T21:21:55.715Z,1.63
2018-07-25T21:24:25.333Z,1.60
2018-07-25T21:26:54.710Z,1.37
2018-07-25T21:29:24.711Z,1.70
2018-07-25T21:31:54.412Z,1.30
2018-07-25T21:34:23.805Z,1.23
2018-07-25T21:36:54.277Z,1.50
2018-07-25T21:39:23.713Z,1.87
2018-07-25T21:41:53.057Z,1.43
2018-07-25T21:44:22.428Z,1.20
2018-07-25T21:46:51.839Z,1.47
2018-07-25T21:49:21.237Z,1.70
2018-07-25T21:51:50.730Z,1.77
2018-07-25T21:54:20.100Z,1.87
2018-07-25T21:56:49.463Z,1.80
2018-07-25T21:59:18.885Z,1.70
2018-07-25T22:01:48.283Z,1.70
2018-07-25T22:04:17.707Z,1.85
2018-07-25T22:06:47.163Z,1.50
2018-07-25T22:09:16.524Z,1.80
2018-07-25T22:11:45.931Z,1.53
2018-07-25T22:14:15.336Z,1.97
2018-07-25T22:16:45.714Z,1.40
2018-07-25T22:19:15.740Z,1.63
2018-07-25T22:21:45.322Z,1.43
2018-07-25T22:24:15.941Z,1.53
2018-07-25T22:26:45.713Z,1.60
2018-07-25T22:29:15.093Z,1.67
2018-07-25T22:31:44.489Z,1.60
2018-07-25T22:34:14.053Z,1.30
2018-07-25T22:36:43.474Z,1.23
2018-07-25T22:39:12.889Z,1.77
2018-07-25T22:41:42.872Z,1.37
2018-07-25T22:44:13.142Z,1.30
2018-07-25T22:46:42.520Z,1.77
2018-07-25T22:49:11.864Z,2.40
2018-07-25T22:51:41.245Z,2.07
2018-07-25T22:54:10.626Z,1.93
2018-07-25T22:56:39.984Z,1.70
2018-07-25T22:59:09.468Z,1.70
2018-07-25T23:01:38.839Z,1.53
2018-07-25T23:04:08.601Z,2.30
2018-07-25T23:06:38.026Z,1.90
2018-07-25T23:09:09.398Z,1.23
2018-07-25T23:11:38.863Z,2.00
2018-07-25T23:14:08.536Z,1.70
2018-07-25T23:16:37.943Z,1.87
2018-07-25T23:19:07.353Z,2.10
2018-07-25T23:21:36.836Z,1.67
2018-07-25T23:24:06.245Z,1.57
2018-07-25T23:26:35.666Z,2.30
2018-07-25T23:29:05.268Z,2.03
2018-07-25T23:31:34.713Z,1.60
2018-07-25T23:34:04.097Z,1.60
2018-07-25T23:36:33.501Z,2.10
2018-07-25T23:39:04.765Z,2.03
2018-07-25T23:41:35.616Z,2.27
2018-07-25T23:44:07.705Z,2.70
2018-07-25T23:46:37.536Z,2.13
2018-07-25T23:49:06.896Z,2.40
2018-07-25T23:51:36.321Z,2.37
2018-07-25T23:54:05.954Z,3.03
2018-07-25T23:56:35.304Z,2.33
2018-07-25T23:59:04.785Z,2.90
